Time;durP1;ratioP1;P1;durP2;ratioP2;P2;SDS_P1;SDS_P2;PMS_P1;PMS_P2;Temp;Humidity;BMP_temperature;BMP_pressure;BME280_temperature;BME280_humidity;BME280_pressure;Samples;Min_cycle;Max_cycle;Signal;HPM_P1;HPM_P2
2021/04/11 00:01:58;;;;;;;1999.90;999.90;;;10.80;99.90;;;;;;4812650;29;20184;-82
2021/04/11 00:04:24;;;;;;;1999.90;999.90;;;10.80;99.90;;;;;;4812079;29;20653;-82
2021/04/11 00:06:49;;;;;;;1999.90;999.90;;;10.80;99.90;;;;;;4829279;29;20208;-82
2021/04/11 00:09:15;;;;;;;1999.90;999.90;;;10.70;99.90;;;;;;4829061;29;20183;-82
2021/04/11 00:11:41;;;;;;;1999.90;999.90;;;10.70;99.90;;;;;;4829233;29;20181;-82
2021/04/11 00:14:07;;;;;;;1999.90;999.90;;;10.70;99.90;;;;;;4829146;29;20179;-82
2021/04/11 00:16:33;;;;;;;1999.90;999.90;;;10.80;99.90;;;;;;4830096;29;20199;-82
2021/04/11 00:18:59;;;;;;;1999.90;999.90;;;10.80;99.90;;;;;;4829792;29;20173;-82
2021/04/11 00:21:25;;;;;;;1999.90;999.90;;;10.80;99.90;;;;;;4829728;29;20187;-82
2021/04/11 00:23:51;;;;;;;1999.90;999.90;;;10.80;99.90;;;;;;4829169;29;20173;-82
2021/04/11 00:26:17;;;;;;;1999.90;999.90;;;10.80;99.90;;;;;;4827946;29;20204;-82
2021/04/11 00:28:42;;;;;;;1999.90;999.90;;;10.80;99.90;;;;;;4828904;29;20177;-82
2021/04/11 00:31:08;;;;;;;1999.90;999.90;;;10.80;99.90;;;;;;4828639;29;20417;-82
2021/04/11 00:33:40;;;;;;;1999.90;999.90;;;10.80;99.90;;;;;;4828638;29;20165;-82
2021/04/11 00:36:12;;;;;;;1999.90;999.90;;;10.70;99.90;;;;;;4828841;29;20196;-82
2021/04/11 00:38:39;;;;;;;1999.90;999.90;;;10.70;99.90;;;;;;4812007;29;20515;-82
2021/04/11 00:41:25;;;;;;;1999.90;999.90;;;10.70;99.90;;;;;;4811539;29;20176;-82
2021/04/11 00:43:52;;;;;;;1999.90;999.90;;;10.70;99.90;;;;;;4828862;29;20177;-82
2021/04/11 00:46:26;;;;;;;1999.90;999.90;;;10.80;99.90;;;;;;4826683;29;20216;-82
2021/04/11 00:48:52;;;;;;;1999.90;999.90;;;10.80;99.90;;;;;;4827481;29;20157;-82
2021/04/11 00:51:24;;;;;;;1999.90;999.90;;;10.80;99.90;;;;;;4828081;29;20225;-82
2021/04/11 00:53:50;;;;;;;1999.90;999.90;;;10.90;99.90;;;;;;4832503;29;20159;-82
2021/04/11 00:56:17;;;;;;;1999.90;999.90;;;10.80;99.90;;;;;;4832223;29;20255;-82
2021/04/11 00:58:42;;;;;;;1999.90;999.90;;;10.80;99.90;;;;;;4832454;29;20411;-83
2021/04/11 01:01:09;;;;;;;1999.90;999.90;;;10.80;99.90;;;;;;4832456;29;20199;-83
2021/04/11 01:03:38;;;;;;;1999.90;999.90;;;10.80;99.90;;;;;;4815581;29;20856;-82
2021/04/11 01:06:12;;;;;;;1999.90;999.90;;;10.90;99.90;;;;;;4831318;29;20200;-82
2021/04/11 01:08:38;;;;;;;1999.90;999.90;;;10.80;99.90;;;;;;4832346;29;20160;-83
2021/04/11 01:11:16;;;;;;;1999.90;999.90;;;10.80;99.90;;;;;;4831496;29;20205;-82
2021/04/11 01:13:55;;;;;;;1999.90;999.90;;;10.80;99.90;;;;;;4831169;29;20176;-82
2021/04/11 01:16:22;;;;;;;1999.90;999.90;;;10.80;99.90;;;;;;4831666;29;20269;-82
2021/04/11 01:18:48;;;;;;;1999.90;999.90;;;10.90;99.90;;;;;;4832902;29;20187;-82
2021/04/11 01:21:29;;;;;;;1999.90;999.90;;;10.80;99.90;;;;;;4831658;29;20540;-82
2021/04/11 01:24:06;;;;;;;1999.90;999.90;;;10.80;99.90;;;;;;4831831;29;20291;-82
2021/04/11 01:26:33;;;;;;;1999.90;999.90;;;10.80;99.90;;;;;;4817268;29;20212;-82
2021/04/11 01:29:00;;;;;;;1999.90;999.90;;;10.80;99.90;;;;;;4819516;29;20176;-83
2021/04/11 01:31:30;;;;;;;1999.90;999.90;;;10.80;99.90;;;;;;4835641;29;20176;-83
2021/04/11 01:33:56;;;;;;;1999.90;999.90;;;10.90;99.90;;;;;;4835995;29;20154;-83
2021/04/11 01:36:24;;;;;;;1999.90;999.90;;;10.80;99.90;;;;;;4836639;29;20196;-83
2021/04/11 01:38:50;;;;;;;1999.90;999.90;;;10.80;99.90;;;;;;4836838;29;20177;-83
2021/04/11 01:41:22;;;;;;;1999.90;999.90;;;10.80;99.90;;;;;;4836230;29;20221;-83
2021/04/11 01:43:50;;;;;;;1999.90;999.90;;;10.80;99.90;;;;;;4834969;29;20176;-83
2021/04/11 01:46:16;;;;;;;1999.90;999.90;;;10.80;99.90;;;;;;4832717;29;20255;-83
2021/04/11 01:48:45;;;;;;;1999.90;999.90;;;10.80;99.90;;;;;;4816253;29;20562;-83
2021/04/11 01:51:14;;;;;;;1999.90;999.90;;;10.80;99.90;;;;;;4832233;29;20452;-83
2021/04/11 01:53:41;;;;;;;1999.90;999.90;;;10.70;99.90;;;;;;4831850;29;20181;-83
2021/04/11 01:56:09;;;;;;;1999.90;999.90;;;10.70;99.90;;;;;;4831475;29;20228;-83
2021/04/11 01:58:36;;;;;;;1999.90;999.90;;;10.70;99.90;;;;;;4815632;29;20172;-83
2021/04/11 02:01:23;;;;;;;1999.90;999.90;;;10.70;99.90;;;;;;4831695;29;20176;-83
2021/04/11 02:04:11;;;;;;;1999.90;999.90;;;10.70;99.90;;;;;;4815157;29;20190;-83
2021/04/11 02:06:43;;;;;;;1999.90;999.90;;;10.70;99.90;;;;;;4831658;29;20280;-83
2021/04/11 02:09:16;;;;;;;1999.90;999.90;;;10.70;99.90;;;;;;4831615;29;20153;-83
2021/04/11 02:11:42;;;;;;;1999.90;999.90;;;10.70;99.90;;;;;;4830698;29;20193;-83
2021/04/11 02:14:10;;;;;;;1999.90;999.90;;;10.70;99.90;;;;;;4831073;29;20184;-83
2021/04/11 02:16:36;;;;;;;1999.90;999.90;;;10.70;99.90;;;;;;4831069;29;20224;-83
2021/04/11 02:19:11;;;;;;;1999.90;999.90;;;10.70;99.90;;;;;;4830766;29;20178;-82
2021/04/11 02:21:42;;;;;;;1999.90;999.90;;;10.60;99.90;;;;;;4830120;29;20157;-82
2021/04/11 02:24:09;;;;;;;1999.90;999.90;;;10.70;99.90;;;;;;4814339;29;20181;-82
2021/04/11 02:26:36;;;;;;;1999.90;999.90;;;10.60;99.90;;;;;;4829676;29;20705;-82
2021/04/11 02:29:13;;;;;;;1999.90;999.90;;;10.60;99.90;;;;;;4829582;29;20169;-83
2021/04/11 02:31:38;;;;;;;1999.90;999.90;;;10.60;99.90;;;;;;4830878;29;20159;-83
2021/04/11 02:34:08;;;;;;;1999.90;999.90;;;10.60;99.90;;;;;;4830595;29;20247;-83
2021/04/11 02:36:48;;;;;;;1999.90;999.90;;;10.70;99.90;;;;;;4833981;29;20205;-83
2021/04/11 02:39:20;;;;;;;1999.90;999.90;;;10.70;99.90;;;;;;4820448;29;20202;-83
2021/04/11 02:41:47;;;;;;;1999.90;999.90;;;10.70;99.90;;;;;;4832700;29;20194;-83
2021/04/11 02:44:14;;;;;;;1999.90;999.90;;;10.60;99.90;;;;;;4832797;29;20677;-83
2021/04/11 02:46:41;;;;;;;1999.90;999.90;;;10.70;99.90;;;;;;4832485;29;20211;-83
2021/04/11 02:49:11;;;;;;;1999.90;999.90;;;10.70;99.90;;;;;;4833444;29;20267;-83
2021/04/11 02:51:38;;;;;;;1999.90;999.90;;;10.70;99.90;;;;;;4833174;29;20152;-83
2021/04/11 02:54:07;;;;;;;1999.90;999.90;;;10.70;99.90;;;;;;4831989;29;20184;-82
2021/04/11 02:56:35;;;;;;;1999.90;999.90;;;10.70;99.90;;;;;;4830691;29;20193;-82
2021/04/11 02:59:03;;;;;;;1999.90;999.90;;;10.70;99.90;;;;;;4830826;29;20169;-82
2021/04/11 03:01:38;;;;;;;1999.90;999.90;;;10.70;99.90;;;;;;4831344;29;20169;-83
2021/04/11 03:04:07;;;;;;;1999.90;999.90;;;10.70;99.90;;;;;;4831752;29;20180;-83
2021/04/11 03:06:38;;;;;;;1999.90;999.90;;;10.80;99.90;;;;;;4833048;29;20210;-83
2021/04/11 03:09:09;;;;;;;1999.90;999.90;;;10.80;99.90;;;;;;4833905;29;20193;-83
2021/04/11 03:11:49;;;;;;;1999.90;999.90;;;10.90;99.90;;;;;;4818367;29;20606;-83
2021/04/11 03:14:17;;;;;;;1999.90;999.90;;;10.90;99.90;;;;;;4834848;29;20167;-83
2021/04/11 03:16:44;;;;;;;1999.90;999.90;;;10.80;99.90;;;;;;4833392;29;20275;-82
2021/04/11 03:19:14;;;;;;;1999.90;999.90;;;10.70;99.90;;;;;;4833468;29;20180;-83
2021/04/11 03:21:43;;;;;;;1999.90;999.90;;;10.60;99.90;;;;;;4817072;29;20176;-83
2021/04/11 03:24:09;;;;;;;1999.90;999.90;;;10.50;99.90;;;;;;4817215;29;20176;-83
2021/04/11 03:26:46;;;;;;;1999.90;999.90;;;10.40;99.90;;;;;;4833276;29;20626;-83
2021/04/11 03:29:22;;;;;;;1999.90;999.90;;;10.30;99.90;;;;;;4816386;29;20251;-83
2021/04/11 03:31:58;;;;;;;1999.90;999.90;;;10.30;99.90;;;;;;4830892;29;20562;-83
2021/04/11 03:34:25;;;;;;;1999.90;999.90;;;10.20;99.90;;;;;;4813769;29;20176;-83
2021/04/11 03:36:52;;;;;;;1999.90;999.90;;;10.20;99.90;;;;;;4830997;29;20326;-83
2021/04/11 03:39:21;;;;;;;1999.90;999.90;;;10.20;99.90;;;;;;4830483;29;20175;-83
2021/04/11 03:41:48;;;;;;;1999.90;999.90;;;10.10;99.90;;;;;;4831098;29;20206;-83
2021/04/11 03:44:22;;;;;;;1999.90;999.90;;;9.90;99.90;;;;;;4829192;29;20187;-81
2021/04/11 03:47:03;;;;;;;1999.90;999.90;;;9.80;99.90;;;;;;4812889;29;20203;-82
2021/04/11 03:49:54;;;;;;;1999.90;999.90;;;9.80;99.90;;;;;;4829391;29;20183;-81
2021/04/11 03:52:28;;;;;;;1999.90;999.90;;;9.70;99.90;;;;;;4791458;30;20246;-82
2021/04/11 03:54:55;;;;;;;1999.90;999.90;;;9.60;99.90;;;;;;4826912;29;20184;-82
2021/04/11 03:57:39;;;;;;;1999.90;999.90;;;9.60;99.90;;;;;;4813675;29;20212;-82
2021/04/11 04:00:14;;;;;;;1999.90;999.90;;;9.70;99.90;;;;;;4830887;29;20168;-82
2021/04/11 04:02:43;;;;;;;1999.90;999.90;;;9.60;99.90;;;;;;4831584;29;20164;-82
2021/04/11 04:05:13;;;;;;;1999.90;999.90;;;9.50;99.90;;;;;;4831338;29;20251;-82
2021/04/11 04:07:50;;;;;;;1999.90;999.90;;;9.50;99.90;;;;;;4830682;29;20207;-82
2021/04/11 04:10:23;;;;;;;1999.90;999.90;;;9.50;99.90;;;;;;4814924;29;20192;-82
2021/04/11 04:13:22;;;;;;;1999.90;999.90;;;9.40;99.90;;;;;;4831614;29;20537;-82
2021/04/11 04:16:28;;;;;;;1999.90;999.90;;;9.30;99.90;;;;;;4831556;29;20192;-82
2021/04/11 04:19:31;;;;;;;1999.90;999.90;;;9.30;99.90;;;;;;4829315;29;20220;-82
2021/04/11 04:22:23;;;;;;;1999.90;999.90;;;9.20;99.90;;;;;;4835831;29;20177;-82
2021/04/11 04:24:55;;;;;;;1999.90;999.90;;;9.20;99.90;;;;;;4835334;29;20214;-82
2021/04/11 04:27:43;;;;;;;1999.90;999.90;;;9.20;99.90;;;;;;4832313;29;20212;-82
2021/04/11 04:30:41;;;;;;;1999.90;999.90;;;9.10;99.90;;;;;;4834442;29;20167;-82
2021/04/11 04:33:19;;;;;;;1999.90;999.90;;;9.00;99.90;;;;;;4834166;29;20161;-82
2021/04/11 04:35:47;;;;;;;1999.90;999.90;;;9.00;99.90;;;;;;4834380;29;20164;-82
2021/04/11 04:39:04;;;;;;;1999.90;999.90;;;9.00;99.90;;;;;;4833557;29;20237;-82
2021/04/11 04:41:51;;;;;;;1999.90;999.90;;;9.00;99.90;;;;;;4817005;29;20188;-82
2021/04/11 04:44:27;;;;;;;1999.90;999.90;;;8.90;99.90;;;;;;4832644;29;20171;-82
2021/04/11 04:47:11;;;;;;;1999.90;999.90;;;8.70;99.90;;;;;;4815559;29;20215;-81
2021/04/11 04:49:59;;;;;;;1999.90;999.90;;;8.60;99.90;;;;;;4831923;29;20153;-81
2021/04/11 04:52:27;;;;;;;1999.90;999.90;;;8.60;99.90;;;;;;4814964;29;20176;-81
2021/04/11 04:54:58;;;;;;;1999.90;999.90;;;8.50;99.90;;;;;;4816443;29;20260;-81
2021/04/11 04:57:28;;;;;;;1999.90;999.90;;;8.40;99.90;;;;;;4832602;29;20249;-82
2021/04/11 05:00:09;;;;;;;1999.90;999.90;;;8.30;99.90;;;;;;4832840;29;20184;-82
2021/04/11 05:02:48;;;;;;;1999.90;999.90;;;8.20;99.90;;;;;;4832547;29;20204;-82
2021/04/11 05:05:16;;;;;;;1999.90;999.90;;;8.30;99.90;;;;;;4816317;29;20716;-82
2021/04/11 05:08:10;;;;;;;1999.90;999.90;;;8.40;99.90;;;;;;4832541;29;20212;-82
2021/04/11 05:10:53;;;;;;;1999.90;999.90;;;8.40;99.90;;;;;;4832725;29;20177;-82
2021/04/11 05:13:22;;;;;;;1999.90;999.90;;;8.40;99.90;;;;;;4817325;29;20176;-82
2021/04/11 05:16:03;;;;;;;1999.90;999.90;;;8.40;99.90;;;;;;4831022;29;20220;-81
2021/04/11 05:18:47;;;;;;;1999.90;999.90;;;8.30;99.90;;;;;;4832350;29;20157;-82
2021/04/11 05:21:20;;;;;;;1999.90;999.90;;;8.30;99.90;;;;;;4831541;29;20172;-82
2021/04/11 05:23:55;;;;;;;1999.90;999.90;;;8.30;99.90;;;;;;4831014;29;20157;-82
2021/04/11 05:26:32;;;;;;;1999.90;999.90;;;8.20;99.90;;;;;;4991373;23;20219;-79
2021/04/11 05:29:06;;;;;;;1999.90;999.90;;;8.20;99.90;;;;;;4830334;29;20210;-79
2021/04/11 05:31:35;;;;;;;1999.90;999.90;;;8.20;99.90;;;;;;4830329;29;20163;-79
2021/04/11 05:34:03;;;;;;;1999.90;999.90;;;8.00;99.90;;;;;;4830519;29;20665;-79
2021/04/11 05:36:51;;;;;;;1999.90;999.90;;;8.00;99.90;;;;;;4814601;29;20196;-79
2021/04/11 05:39:50;;;;;;;1999.90;999.90;;;8.00;99.90;;;;;;4832185;29;20174;-79
2021/04/11 05:42:48;;;;;;;1999.90;999.90;;;7.90;99.90;;;;;;4833595;29;20165;-79
2021/04/11 05:45:32;;;;;;;1999.90;999.90;;;7.70;99.90;;;;;;4834341;29;20165;-79
2021/04/11 05:48:01;;;;;;;1999.90;999.90;;;7.60;99.90;;;;;;4833704;29;20208;-79
2021/04/11 05:50:34;;;;;;;1999.90;999.90;;;7.70;99.90;;;;;;4816925;29;20177;-79
2021/04/11 05:53:15;;;;;;;1999.90;999.90;;;7.60;99.90;;;;;;4833749;29;20152;-79
2021/04/11 05:55:47;;;;;;;1999.90;999.90;;;7.60;99.90;;;;;;4833437;29;20171;-79
2021/04/11 05:58:18;;;;;;;1999.90;999.90;;;7.60;99.90;;;;;;4833622;29;20165;-79
2021/04/11 06:00:59;;;;;;;1999.90;999.90;;;7.60;99.90;;;;;;4833850;29;20224;-79
2021/04/11 06:03:27;;;;;;;1999.90;999.90;;;7.50;99.90;;;;;;4833392;29;20521;-79
2021/04/11 06:06:02;;;;;;;1999.90;999.90;;;7.50;99.90;;;;;;4833897;29;20195;-79
2021/04/11 06:08:52;;;;;;;1999.90;999.90;;;7.40;99.90;;;;;;4820431;29;20168;-79
2021/04/11 06:11:29;;;;;;;1999.90;999.90;;;7.20;99.90;;;;;;4836825;29;20149;-79
2021/04/11 06:14:16;;;;;;;1999.90;999.90;;;7.30;99.90;;;;;;4836816;29;20160;-79
2021/04/11 06:16:42;;;;;;;1999.90;999.90;;;7.30;99.90;;;;;;4837102;29;20193;-79
2021/04/11 06:19:10;;;;;;;1999.90;999.90;;;7.20;99.90;;;;;;4836701;29;20177;-79
2021/04/11 06:21:57;;;;;;;1999.90;999.90;;;7.20;99.90;;;;;;4819764;29;20185;-79
2021/04/11 06:24:50;;;;;;;1999.90;999.90;;;7.20;99.90;;;;;;4835159;29;20199;-79
2021/04/11 06:27:43;;;;;;;1999.90;999.90;;;7.20;99.90;;;;;;4817890;29;20212;-79
2021/04/11 06:30:31;;;;;;;1999.90;999.90;;;7.10;99.90;;;;;;4835845;29;20213;-79
2021/04/11 06:33:16;;;;;;;1999.90;999.90;;;7.00;99.90;;;;;;4834833;29;20232;-79
2021/04/11 06:35:44;;;;;;;1999.90;999.90;;;7.00;99.90;;;;;;4818022;29;20649;-79
2021/04/11 06:38:14;;;;;;;1999.90;999.90;;;6.90;99.90;;;;;;4834712;29;20173;-78
2021/04/11 06:41:00;;;;;;;1999.90;999.90;;;6.90;99.90;;;;;;4820618;29;20212;-79
2021/04/11 06:43:55;;;;;;;1999.90;999.90;;;6.80;99.90;;;;;;4836052;29;20153;-79
2021/04/11 06:46:54;;;;;;;1999.90;999.90;;;6.70;99.90;;;;;;4836068;29;20205;-79
2021/04/11 06:49:57;;;;;;;1999.90;999.90;;;6.70;99.90;;;;;;4835001;29;20168;-79
2021/04/11 06:52:35;;;;;;;1999.90;999.90;;;6.60;99.90;;;;;;4834525;29;20224;-79
2021/04/11 06:55:14;;;;;;;1999.90;999.90;;;6.70;99.90;;;;;;4833812;29;20164;-79
2021/04/11 06:57:45;;;;;;;1999.90;999.90;;;6.60;99.90;;;;;;4817130;29;20224;-79
2021/04/11 07:00:47;;;;;;;1999.90;999.90;;;6.60;99.90;;;;;;4832396;29;20165;-79
2021/04/11 07:03:34;;;;;;;1999.90;999.90;;;6.60;99.90;;;;;;4814858;29;20169;-79
2021/04/11 07:06:09;;;;;;;1999.90;999.90;;;6.60;99.90;;;;;;4833849;29;20188;-79
2021/04/11 07:09:06;;;;;;;1999.90;999.90;;;6.60;99.90;;;;;;4831996;29;20273;-78
2021/04/11 07:11:56;;;;;;;1999.90;999.90;;;6.70;99.90;;;;;;4830987;29;20169;-79
2021/04/11 07:15:08;;;;;;;1999.90;999.90;;;6.60;99.90;;;;;;4830393;29;20157;-78
2021/04/11 07:18:04;;;;;;;1999.90;999.90;;;6.60;99.90;;;;;;4815697;29;20205;-79
2021/04/11 07:21:03;;;;;;;1999.90;999.90;;;6.60;99.90;;;;;;4813416;29;20160;-78
2021/04/11 07:23:47;;;;;;;1999.90;999.90;;;6.60;99.90;;;;;;4829742;29;20213;-78
2021/04/11 07:26:19;;;;;;;1999.90;999.90;;;6.60;99.90;;;;;;4812729;29;20617;-78
2021/04/11 07:28:57;;;;;;;1999.90;999.90;;;6.60;99.90;;;;;;4813724;29;20724;-78
2021/04/11 07:31:35;;;;;;;1999.90;999.90;;;6.60;99.90;;;;;;4829441;29;20161;-78
2021/04/11 07:34:28;;;;;;;1999.90;999.90;;;6.60;99.90;;;;;;4812968;29;20656;-79
2021/04/11 07:37:28;;;;;;;1999.90;999.90;;;6.60;99.90;;;;;;4829568;29;20192;-78
2021/04/11 07:40:17;;;;;;;1999.90;999.90;;;6.60;99.90;;;;;;4814953;29;20188;-78
2021/04/11 07:43:11;;;;;;;1999.90;999.90;;;6.60;99.90;;;;;;4796547;29;20271;-79
2021/04/11 07:45:55;;;;;;;1999.90;999.90;;;6.60;99.90;;;;;;4830133;29;20172;-79
2021/04/11 07:48:34;;;;;;;1999.90;999.90;;;6.60;99.90;;;;;;4830486;29;20180;-79
2021/04/11 07:51:17;;;;;;;1999.90;999.90;;;6.70;99.90;;;;;;4828746;29;20625;-78
2021/04/11 07:54:02;;;;;;;1999.90;999.90;;;6.70;99.90;;;;;;4828259;29;20525;-78
2021/04/11 07:57:08;;;;;;;1999.90;999.90;;;6.70;99.90;;;;;;4828495;29;20200;-79
2021/04/11 07:59:45;;;;;;;1999.90;999.90;;;6.60;99.90;;;;;;4827692;29;20167;-79
2021/04/11 08:02:30;;;;;;;1999.90;999.90;;;6.60;99.90;;;;;;4826936;29;20172;-79
2021/04/11 08:05:20;;;;;;;1999.90;999.90;;;6.60;99.90;;;;;;4827576;29;20157;-79
2021/04/11 08:08:19;;;;;;;1999.90;999.90;;;6.60;99.90;;;;;;4827972;29;20210;-79
2021/04/11 08:11:13;;;;;;;1999.90;999.90;;;6.50;99.90;;;;;;4811982;29;20176;-79
2021/04/11 08:14:03;;;;;;;1999.90;999.90;;;6.60;99.90;;;;;;4796458;29;20181;-79
2021/04/11 08:16:49;;;;;;;1999.90;999.90;;;6.60;99.90;;;;;;4813005;29;20200;-79
2021/04/11 08:19:51;;;;;;;1999.90;999.90;;;6.60;99.90;;;;;;4829776;29;20161;-79
2021/04/11 08:22:41;;;;;;;1999.90;999.90;;;6.60;99.90;;;;;;4828886;29;20189;-80
2021/04/11 08:25:41;;;;;;;1999.90;999.90;;;6.60;99.90;;;;;;4829704;29;20192;-79
2021/04/11 08:28:28;;;;;;;1999.90;999.90;;;6.60;99.90;;;;;;4829544;29;20197;-79
2021/04/11 08:31:22;;;;;;;1999.90;999.90;;;6.60;99.90;;;;;;4813829;29;20252;-79
2021/04/11 08:34:22;;;;;;;1999.90;999.90;;;6.60;99.90;;;;;;4828805;29;20518;-80
2021/04/11 08:37:08;;;;;;;1999.90;999.90;;;6.60;99.90;;;;;;4828920;29;20197;-80
2021/04/11 08:39:58;;;;;;;1999.90;999.90;;;6.60;99.90;;;;;;4828754;29;20164;-80
2021/04/11 08:42:42;;;;;;;1999.90;999.90;;;6.60;99.90;;;;;;4829307;29;20185;-79
2021/04/11 08:45:15;;;;;;;1999.90;999.90;;;6.40;99.90;;;;;;4812874;29;20169;-79
2021/04/11 08:48:05;;;;;;;1999.90;999.90;;;6.50;99.90;;;;;;4828508;29;20211;-80
2021/04/11 08:51:03;;;;;;;1999.90;999.90;;;6.50;99.90;;;;;;4812329;29;20168;-80
2021/04/11 08:53:54;;;;;;;1999.90;999.90;;;6.40;99.90;;;;;;4797145;29;20187;-79
2021/04/11 08:56:25;;;;;;;1999.90;999.90;;;6.40;99.90;;;;;;4812974;29;20200;-79
2021/04/11 08:59:26;;;;;;;1999.90;999.90;;;6.40;99.90;;;;;;4828184;29;20217;-80
2021/04/11 09:02:17;;;;;;;1999.90;999.90;;;6.50;99.90;;;;;;4828543;29;20555;-80
2021/04/11 09:04:51;;;;;;;1999.90;999.90;;;6.50;99.90;;;;;;4828652;29;20161;-80
2021/04/11 09:07:32;;;;;;;1999.90;999.90;;;6.50;99.90;;;;;;4828306;29;20576;-80
2021/04/11 09:10:21;;;;;;;1999.90;999.90;;;6.60;99.90;;;;;;4828961;29;20192;-80
2021/04/11 09:13:00;;;;;;;1999.90;999.90;;;6.60;99.90;;;;;;4828517;29;20153;-80
2021/04/11 09:15:31;;;;;;;1999.90;999.90;;;6.50;99.90;;;;;;4832169;29;20240;-80
2021/04/11 09:18:31;;;;;;;1999.90;999.90;;;6.50;99.90;;;;;;4815279;29;20295;-79
2021/04/11 09:21:41;;;;;;;1999.90;999.90;;;6.40;99.90;;;;;;4815749;29;20275;-79
2021/04/11 09:24:25;;;;;;;1999.90;999.90;;;6.30;99.90;;;;;;4801709;29;20195;-80
2021/04/11 09:27:00;;;;;;;1999.90;999.90;;;6.20;99.90;;;;;;4831877;29;20641;-80
2021/04/11 09:29:32;;;;;;;1999.90;999.90;;;6.20;99.90;;;;;;4815673;29;20230;-80
2021/04/11 09:32:33;;;;;;;1999.90;999.90;;;6.10;99.90;;;;;;4832122;29;20172;-80
2021/04/11 09:35:25;;;;;;;1999.90;999.90;;;6.10;99.90;;;;;;4815997;29;20161;-79
2021/04/11 09:38:09;;;;;;;1999.90;999.90;;;6.10;99.90;;;;;;4831253;29;20201;-80
2021/04/11 09:40:56;;;;;;;1999.90;999.90;;;6.10;99.90;;;;;;4830974;29;20626;-80
2021/04/11 09:43:52;;;;;;;1999.90;999.90;;;6.10;99.90;;;;;;4831287;29;20236;-80
2021/04/11 09:46:43;;;;;;;1999.90;999.90;;;6.20;99.90;;;;;;4815085;29;20593;-80
2021/04/11 09:49:23;;;;;;;1999.90;999.90;;;6.20;99.90;;;;;;4831679;29;20153;-80
2021/04/11 09:52:13;;;;;;;1999.90;999.90;;;6.20;99.90;;;;;;4831755;29;20153;-80
2021/04/11 09:54:50;;;;;;;1999.90;999.90;;;6.30;99.90;;;;;;4831344;29;20512;-80
2021/04/11 09:57:41;;;;;;;1999.90;999.90;;;6.20;99.90;;;;;;4814359;29;20196;-80
2021/04/11 10:00:44;;;;;;;1999.90;999.90;;;6.20;99.90;;;;;;4815218;29;20224;-80
2021/04/11 10:03:39;;;;;;;1999.90;999.90;;;6.30;99.90;;;;;;4816844;29;20597;-80
2021/04/11 10:06:30;;;;;;;1999.90;999.90;;;6.20;99.90;;;;;;4815024;29;20223;-80
2021/04/11 10:09:33;;;;;;;1999.90;999.90;;;6.20;99.90;;;;;;4814935;29;20179;-80
2021/04/11 10:12:07;;;;;;;1999.90;999.90;;;6.20;99.90;;;;;;4830742;29;20190;-80
2021/04/11 10:14:50;;;;;;;1999.90;999.90;;;6.10;99.90;;;;;;4830832;29;20580;-79
2021/04/11 10:17:39;;;;;;;1999.90;999.90;;;6.10;99.90;;;;;;4814693;29;20200;-81
2021/04/11 10:20:41;;;;;;;1999.90;999.90;;;6.10;99.90;;;;;;4813440;29;20188;-81
2021/04/11 10:23:28;;;;;;;1999.90;999.90;;;6.20;99.90;;;;;;4831401;29;20625;-80
2021/04/11 10:26:02;;;;;;;1999.90;999.90;;;6.30;99.90;;;;;;4814814;29;20219;-80
2021/04/11 10:28:58;;;;;;;1999.90;999.90;;;6.10;99.90;;;;;;4831147;29;20153;-80
2021/04/11 10:31:32;;;;;;;1999.90;999.90;;;6.10;99.90;;;;;;4815211;29;20165;-80
2021/04/11 10:34:16;;;;;;;1999.90;999.90;;;6.10;99.90;;;;;;4814913;29;20208;-80
2021/04/11 10:37:01;;;;;;;1999.90;999.90;;;6.00;99.90;;;;;;4832633;29;20212;-80
2021/04/11 10:39:46;;;;;;;1999.90;999.90;;;6.10;99.90;;;;;;4832612;29;20239;-81
2021/04/11 10:42:36;;;;;;;1999.90;999.90;;;6.10;99.90;;;;;;4833363;29;20168;-81
2021/04/11 10:45:22;;;;;;;1999.90;999.90;;;6.00;99.90;;;;;;4831884;29;20172;-81
2021/04/11 10:48:13;;;;;;;1999.90;999.90;;;6.00;99.90;;;;;;4833213;29;20349;-80
2021/04/11 10:50:50;;;;;;;1999.90;999.90;;;6.00;99.90;;;;;;4831440;29;20197;-81
2021/04/11 10:53:39;;;;;;;1999.90;999.90;;;6.10;99.90;;;;;;4831861;29;20181;-80
2021/04/11 10:56:25;;;;;;;1999.90;999.90;;;6.00;99.90;;;;;;4814815;29;20558;-81
2021/04/11 10:59:33;;;;;;;1999.90;999.90;;;6.00;99.90;;;;;;4834014;29;20216;-81
2021/04/11 11:02:18;;;;;;;1999.90;999.90;;;6.30;99.90;;;;;;4817086;29;20545;-81
2021/04/11 11:04:56;;;;;;;1999.90;999.90;;;6.40;99.90;;;;;;4816901;29;20179;-81
2021/04/11 11:07:41;;;;;;;1999.90;999.90;;;6.40;99.90;;;;;;4832859;29;20204;-81
2021/04/11 11:10:19;;;;;;;1999.90;999.90;;;6.50;99.90;;;;;;4815481;29;20169;-81
2021/04/11 11:12:56;;;;;;;1999.90;999.90;;;6.60;99.90;;;;;;4830808;29;20494;-81
2021/04/11 11:15:39;;;;;;;1999.90;999.90;;;6.70;99.90;;;;;;4831073;29;20149;-80
2021/04/11 11:18:23;;;;;;;1999.90;999.90;;;6.80;99.90;;;;;;4814295;29;20196;-80
2021/04/11 11:21:30;;;;;;;1999.90;999.90;;;6.70;99.90;;;;;;4831496;29;20168;-80
2021/04/11 11:24:20;;;;;;;1999.90;999.90;;;6.60;99.90;;;;;;4830974;29;20207;-80
2021/04/11 11:27:12;;;;;;;1999.90;999.90;;;6.60;99.90;;;;;;4900747;23;20224;-80
2021/04/11 11:30:06;;;;;;;1999.90;999.90;;;6.70;99.90;;;;;;4837403;29;20149;-80
2021/04/11 11:33:02;;;;;;;1999.90;999.90;;;6.60;99.90;;;;;;4821134;29;20172;-80
2021/04/11 11:35:28;;;;;;;1999.90;999.90;;;6.50;99.90;;;;;;4837868;29;20157;-80
2021/04/11 11:38:17;;;;;;;1999.90;999.90;;;6.30;99.90;;;;;;4836297;29;20283;-80
2021/04/11 11:41:04;;;;;;;1999.90;999.90;;;6.20;99.90;;;;;;4838953;29;20176;-80
2021/04/11 11:43:41;;;;;;;1999.90;999.90;;;6.20;99.90;;;;;;4837650;29;20637;-80
2021/04/11 11:46:26;;;;;;;1999.90;999.90;;;6.30;99.90;;;;;;4838450;29;20688;-80
2021/04/11 11:49:14;;;;;;;1999.90;999.90;;;6.30;99.90;;;;;;4819769;29;20169;-80
2021/04/11 11:52:02;;;;;;;1999.90;999.90;;;6.20;99.90;;;;;;4821097;29;20164;-80
2021/04/11 11:54:37;;;;;;;1999.90;999.90;;;6.30;99.90;;;;;;4821005;29;20165;-80
2021/04/11 11:57:26;;;;;;;1999.90;999.90;;;6.30;99.90;;;;;;4837293;29;20204;-80
2021/04/11 12:00:04;;;;;;;1999.90;999.90;;;6.30;99.90;;;;;;4836539;29;20157;-80
2021/04/11 12:02:41;;;;;;;1999.90;999.90;;;6.20;99.90;;;;;;4837193;29;20157;-80
2021/04/11 12:05:15;;;;;;;1999.90;999.90;;;6.30;99.90;;;;;;4837905;29;20157;-80
2021/04/11 12:07:53;;;;;;;1999.90;999.90;;;6.30;99.90;;;;;;4836966;29;20247;-80
2021/04/11 12:10:30;;;;;;;1999.90;999.90;;;6.20;99.90;;;;;;4836751;29;20174;-80
2021/04/11 12:13:09;;;;;;;1999.90;999.90;;;6.20;99.90;;;;;;4836138;29;20164;-80
2021/04/11 12:15:53;;;;;;;1999.90;999.90;;;6.30;99.90;;;;;;4835799;29;20195;-80
2021/04/11 12:18:26;;;;;;;1999.90;999.90;;;6.30;99.90;;;;;;4836088;29;20157;-81
2021/04/11 12:21:21;;;;;;;1999.90;999.90;;;6.40;99.90;;;;;;4835067;29;20526;-83
2021/04/11 12:24:03;;;;;;;1999.90;999.90;;;6.40;99.90;;;;;;4819010;29;20164;-81
2021/04/11 12:26:33;;;;;;;1999.90;999.90;;;6.40;99.90;;;;;;4835406;29;20219;-81
2021/04/11 12:29:08;;;;;;;1999.90;999.90;;;6.40;99.90;;;;;;4819343;29;20176;-80
2021/04/11 12:31:43;;;;;;;1999.90;999.90;;;6.30;99.90;;;;;;4820641;29;20180;-80
2021/04/11 12:34:18;;;;;;;1999.90;999.90;;;6.20;99.90;;;;;;4836655;29;20190;-80
2021/04/11 12:36:59;;;;;;;1999.90;999.90;;;6.30;99.90;;;;;;4819099;29;20203;-80
2021/04/11 12:39:30;;;;;;;1999.90;999.90;;;6.30;99.90;;;;;;4835751;29;20172;-82
2021/04/11 12:42:17;;;;;;;1999.90;999.90;;;6.40;99.90;;;;;;4837145;29;20165;-80
2021/04/11 12:44:50;;;;;;;1999.90;999.90;;;6.40;99.90;;;;;;4836125;29;20168;-81
2021/04/11 12:47:18;;;;;;;1999.90;999.90;;;6.50;99.90;;;;;;4836733;29;20255;-80
2021/04/11 12:49:53;;;;;;;1999.90;999.90;;;6.60;99.90;;;;;;4836326;29;20180;-81
2021/04/11 12:52:29;;;;;;;1999.90;999.90;;;6.70;99.90;;;;;;4834775;29;20187;-81
2021/04/11 12:55:28;;;;;;;1999.90;999.90;;;6.90;99.90;;;;;;4836416;29;20243;-81
2021/04/11 12:58:24;;;;;;;1999.90;999.90;;;6.70;99.90;;;;;;4836432;29;20206;-81
2021/04/11 13:01:12;;;;;;;1999.90;999.90;;;6.70;99.90;;;;;;4819799;29;20255;-81
2021/04/11 13:03:52;;;;;;;1999.90;999.90;;;6.70;99.90;;;;;;4820068;29;20661;-80
2021/04/11 13:06:21;;;;;;;1999.90;999.90;;;6.60;99.90;;;;;;4836307;29;20188;-81
2021/04/11 13:09:14;;;;;;;1999.90;999.90;;;6.50;99.90;;;;;;4835748;29;20176;-81